createdAt,value
2023-02-01T00:00:32.979Z,29.40
2023-02-01T00:01:09.725Z,29.42
2023-02-01T00:01:46.256Z,29.50
2023-02-01T00:02:22.464Z,29.30
2023-02-01T00:02:58.873Z,29.66
2023-02-01T00:03:34.744Z,29.41
2023-02-01T00:04:10.588Z,29.44
2023-02-01T00:04:46.385Z,29.29
2023-02-01T00:05:22.826Z,29.38
2023-02-01T00:05:59.656Z,29.41
2023-02-01T00:06:35.766Z,29.43
2023-02-01T00:07:14.353Z,29.46
2023-02-01T00:07:49.814Z,29.49
2023-02-01T00:08:25.792Z,29.24
2023-02-01T00:09:02.390Z,29.42
2023-02-01T00:09:38.721Z,29.45
2023-02-01T00:10:14.534Z,29.60
2023-02-01T00:10:50.272Z,29.46
2023-02-01T00:11:26.533Z,29.31
2023-02-01T00:12:03.251Z,29.52
2023-02-01T00:12:39.152Z,29.48
2023-02-01T00:13:16.257Z,29.50
2023-02-01T00:13:52.292Z,29.47
2023-02-01T00:14:28.224Z,29.51
2023-02-01T00:15:06.353Z,29.56
2023-02-01T00:15:42.095Z,29.38
2023-02-01T00:16:18.514Z,29.49
2023-02-01T00:16:54.892Z,29.42
2023-02-01T00:17:31.520Z,29.48
2023-02-01T00:18:07.089Z,29.48
2023-02-01T00:18:42.454Z,29.45
2023-02-01T00:19:19.308Z,29.63
2023-02-01T00:19:55.601Z,29.38
2023-02-01T00:20:32.096Z,29.39
2023-02-01T00:21:08.196Z,29.52
2023-02-01T00:21:44.593Z,29.49
2023-02-01T00:22:20.987Z,29.55
2023-02-01T00:22:57.232Z,29.41
2023-02-01T00:23:33.423Z,29.37
2023-02-01T00:24:09.246Z,29.34
2023-02-01T00:24:45.935Z,29.49
2023-02-01T00:25:22.275Z,29.43
2023-02-01T00:25:59.602Z,29.50
2023-02-01T00:26:36.221Z,29.65
2023-02-01T00:27:12.202Z,29.69
2023-02-01T00:27:48.945Z,29.54
2023-02-01T00:28:24.808Z,29.60
2023-02-01T00:29:00.112Z,29.51
2023-02-01T00:29:37.034Z,29.62
2023-02-01T00:30:13.160Z,29.45
2023-02-01T00:30:49.208Z,29.48
2023-02-01T00:31:27.059Z,29.44
2023-02-01T00:32:04.028Z,29.56
2023-02-01T00:32:40.289Z,29.57
2023-02-01T00:33:16.018Z,29.55
2023-02-01T00:33:52.204Z,29.53
2023-02-01T00:34:28.201Z,29.58
2023-02-01T00:35:04.340Z,29.43
2023-02-01T00:35:40.496Z,29.60
2023-02-01T00:36:17.155Z,29.45
2023-02-01T00:36:53.366Z,29.55
2023-02-01T00:37:29.685Z,29.59
2023-02-01T00:38:05.832Z,29.54
2023-02-01T00:38:41.720Z,29.44
2023-02-01T00:39:17.618Z,29.53
2023-02-01T00:39:53.431Z,29.42
2023-02-01T00:40:29.897Z,29.54
2023-02-01T00:41:06.547Z,29.43
2023-02-01T00:41:45.097Z,29.51
2023-02-01T00:42:22.998Z,29.53
2023-02-01T00:42:58.961Z,29.47
2023-02-01T00:43:35.198Z,29.52
2023-02-01T00:44:10.785Z,29.43
2023-02-01T00:44:48.705Z,29.60
2023-02-01T00:45:25.266Z,29.31
2023-02-01T00:46:01.440Z,29.36
2023-02-01T00:46:38.168Z,29.55
2023-02-01T00:47:14.811Z,29.46
2023-02-01T00:47:50.940Z,29.50
2023-02-01T00:48:27.087Z,29.45
2023-02-01T00:49:03.098Z,29.53
2023-02-01T00:49:38.412Z,29.51
2023-02-01T00:50:16.249Z,29.52
2023-02-01T00:50:52.649Z,29.49
2023-02-01T00:51:28.481Z,29.49
2023-02-01T00:52:05.629Z,29.34
2023-02-01T00:52:42.239Z,29.45
2023-02-01T00:53:19.220Z,29.46
2023-02-01T00:53:55.337Z,29.44
2023-02-01T00:54:31.768Z,29.54
2023-02-01T00:55:07.994Z,29.57
2023-02-01T00:55:43.950Z,29.49
2023-02-01T00:56:20.223Z,29.60
2023-02-01T00:56:56.933Z,29.58
2023-02-01T00:57:33.919Z,29.51
2023-02-01T00:58:09.633Z,29.47
2023-02-01T00:58:46.331Z,29.51
2023-02-01T00:59:22.796Z,29.51
2023-02-01T00:59:58.709Z,29.50
2023-02-01T01:00:35.342Z,29.38
2023-02-01T01:01:12.050Z,29.45
2023-02-01T01:01:48.571Z,29.40
2023-02-01T01:02:25.160Z,29.33
2023-02-01T01:03:01.467Z,29.43
2023-02-01T01:03:38.361Z,29.41
2023-02-01T01:04:13.650Z,29.40
2023-02-01T01:04:49.629Z,29.58
2023-02-01T01:05:26.110Z,29.44
2023-02-01T01:06:02.295Z,29.58
2023-02-01T01:06:38.998Z,29.45
2023-02-01T01:07:15.725Z,29.50
2023-02-01T01:07:51.833Z,29.52
2023-02-01T01:08:27.987Z,29.40
2023-02-01T01:09:04.494Z,29.33
2023-02-01T01:09:40.283Z,29.44
2023-02-01T01:10:15.974Z,29.45
2023-02-01T01:10:52.151Z,29.33
2023-02-01T01:11:28.412Z,29.35
2023-02-01T01:12:04.430Z,29.37
2023-02-01T01:12:40.837Z,29.47
2023-02-01T01:13:17.011Z,29.41
2023-02-01T01:13:52.732Z,29.32
2023-02-01T01:14:29.220Z,29.41
2023-02-01T01:15:05.337Z,29.54
2023-02-01T01:15:41.160Z,29.39
2023-02-01T01:16:17.930Z,29.23
2023-02-01T01:16:53.880Z,29.37
2023-02-01T01:17:30.428Z,29.43
2023-02-01T01:18:06.620Z,29.40
2023-02-01T01:18:43.069Z,29.45
2023-02-01T01:19:18.919Z,29.22
2023-02-01T01:19:54.364Z,29.25
2023-02-01T01:20:30.783Z,29.34
2023-02-01T01:21:07.270Z,29.47
2023-02-01T01:21:43.875Z,29.31
2023-02-01T01:22:20.933Z,29.31
2023-02-01T01:22:57.279Z,29.46
2023-02-01T01:23:33.605Z,29.33
2023-02-01T01:24:10.095Z,29.28
2023-02-01T01:24:45.593Z,29.40
2023-02-01T01:25:21.959Z,29.51
2023-02-01T01:25:58.510Z,29.18
2023-02-01T01:26:34.867Z,29.37
2023-02-01T01:27:11.083Z,29.24
2023-02-01T01:27:47.492Z,29.28
2023-02-01T01:28:23.591Z,29.44
2023-02-01T01:28:59.905Z,29.40
2023-02-01T01:29:36.170Z,29.47
2023-02-01T01:30:11.739Z,29.26
2023-02-01T01:30:47.743Z,29.36
2023-02-01T01:31:24.079Z,29.25
2023-02-01T01:32:00.745Z,29.38
2023-02-01T01:32:36.653Z,29.38
2023-02-01T01:33:13.239Z,29.40
2023-02-01T01:33:49.341Z,29.38
2023-02-01T01:34:25.524Z,29.23
2023-02-01T01:35:01.696Z,29.40
2023-02-01T01:35:37.493Z,29.36
2023-02-01T01:36:13.623Z,29.24
2023-02-01T01:36:50.055Z,29.20
2023-02-01T01:37:26.616Z,29.17
2023-02-01T01:38:02.786Z,29.34
2023-02-01T01:38:39.126Z,29.29
2023-02-01T01:39:15.482Z,29.24
2023-02-01T01:39:51.149Z,29.29
2023-02-01T01:40:27.165Z,29.25
2023-02-01T01:41:02.916Z,29.32
2023-02-01T01:41:39.191Z,29.38
2023-02-01T01:42:15.648Z,29.40
2023-02-01T01:42:51.476Z,29.22
2023-02-01T01:43:28.377Z,29.29
2023-02-01T01:44:04.754Z,29.38
2023-02-01T01:44:41.290Z,29.46
2023-02-01T01:45:17.719Z,29.35
2023-02-01T01:45:53.390Z,29.41
2023-02-01T01:46:29.351Z,29.40
2023-02-01T01:47:05.988Z,29.20
2023-02-01T01:47:41.906Z,29.17
2023-02-01T01:48:17.937Z,29.37
2023-02-01T01:48:54.154Z,29.42
2023-02-01T01:49:29.842Z,29.32
2023-02-01T01:50:05.216Z,29.27
2023-02-01T01:50:41.940Z,29.26
2023-02-01T01:51:17.738Z,29.24
2023-02-01T01:51:54.134Z,29.28
2023-02-01T01:52:30.521Z,29.17
2023-02-01T01:53:06.801Z,29.29
2023-02-01T01:53:43.147Z,29.25
2023-02-01T01:54:19.055Z,29.23
2023-02-01T01:54:54.794Z,29.24
2023-02-01T01:55:30.993Z,29.18
2023-02-01T01:56:06.872Z,29.38
2023-02-01T01:56:43.138Z,29.27
2023-02-01T01:57:19.097Z,29.53
2023-02-01T01:57:55.789Z,29.40
2023-02-01T01:58:31.989Z,29.26
2023-02-01T01:59:07.985Z,29.34
2023-02-01T01:59:44.123Z,29.17
2023-02-01T02:00:19.809Z,29.21
2023-02-01T02:00:55.997Z,29.24
2023-02-01T02:01:31.927Z,29.12
2023-02-01T02:02:08.387Z,29.27
2023-02-01T02:02:45.275Z,29.23
2023-02-01T02:03:21.139Z,29.31
2023-02-01T02:03:57.897Z,29.17
2023-02-01T02:04:33.930Z,29.40
2023-02-01T02:05:10.094Z,29.27
2023-02-01T02:05:46.065Z,29.35
2023-02-01T02:06:22.855Z,29.21
2023-02-01T02:06:59.627Z,29.10
2023-02-01T02:08:10.654Z,29.12
2023-02-01T02:08:47.103Z,29.28
2023-02-01T02:09:23.056Z,29.27
2023-02-01T02:10:01.204Z,29.33
2023-02-01T02:10:36.569Z,29.25
2023-02-01T02:11:12.454Z,29.16
2023-02-01T02:11:48.723Z,29.30
2023-02-01T02:12:24.978Z,29.26
2023-02-01T02:13:01.256Z,29.29
2023-02-01T02:13:37.714Z,29.25
2023-02-01T02:14:14.258Z,29.20
2023-02-01T02:14:50.193Z,29.25
2023-02-01T02:15:26.570Z,29.16
2023-02-01T02:16:03.565Z,29.25
2023-02-01T02:16:39.499Z,29.35
2023-02-01T02:17:16.345Z,29.16
2023-02-01T02:17:52.210Z,29.39
2023-02-01T02:18:28.599Z,29.21
2023-02-01T02:19:05.191Z,29.26
2023-02-01T02:19:41.462Z,29.08
2023-02-01T02:20:17.693Z,29.27
2023-02-01T02:20:54.039Z,29.21
2023-02-01T02:21:29.918Z,29.32
2023-02-01T02:22:05.349Z,29.42
2023-02-01T02:22:40.651Z,29.42
2023-02-01T02:23:16.755Z,29.09
2023-02-01T02:23:53.732Z,29.25
2023-02-01T02:24:29.615Z,29.31
2023-02-01T02:25:06.472Z,29.18
2023-02-01T02:25:42.449Z,29.31
2023-02-01T02:26:18.641Z,29.19
2023-02-01T02:26:54.433Z,29.25
2023-02-01T02:27:29.567Z,29.33
2023-02-01T02:28:05.707Z,29.27
2023-02-01T02:28:41.779Z,29.26
2023-02-01T02:29:18.547Z,29.24
2023-02-01T02:29:54.951Z,29.08
2023-02-01T02:30:30.853Z,29.25
2023-02-01T02:31:06.557Z,29.30
2023-02-01T02:31:43.179Z,29.20
2023-02-01T02:32:19.160Z,29.07
2023-02-01T02:32:55.117Z,29.31
2023-02-01T02:33:31.519Z,29.49
2023-02-01T02:34:07.363Z,29.35
2023-02-01T02:34:43.474Z,29.14
2023-02-01T02:35:19.430Z,29.15
2023-02-01T02:35:56.068Z,29.23
2023-02-01T02:36:32.356Z,29.18
2023-02-01T02:37:08.111Z,29.20
2023-02-01T02:37:44.441Z,29.21
2023-02-01T02:38:20.052Z,29.08
2023-02-01T02:38:56.629Z,29.03
2023-02-01T02:39:32.744Z,29.16
2023-02-01T02:40:09.631Z,29.13
2023-02-01T02:40:46.107Z,29.26
2023-02-01T02:41:23.258Z,29.22
2023-02-01T02:41:59.762Z,29.24
2023-02-01T02:42:36.422Z,29.31
2023-02-01T02:43:12.725Z,29.15
2023-02-01T02:43:48.469Z,29.24
2023-02-01T02:44:24.509Z,29.20
2023-02-01T02:45:00.440Z,29.26
2023-02-01T02:45:37.570Z,29.35
2023-02-01T02:46:14.046Z,29.32
2023-02-01T02:46:50.373Z,29.31
2023-02-01T02:47:27.209Z,29.20
2023-02-01T02:48:03.663Z,29.25
2023-02-01T02:48:39.749Z,29.22
2023-02-01T02:49:15.458Z,29.23
2023-02-01T02:49:51.603Z,29.32
2023-02-01T02:50:27.976Z,29.20
2023-02-01T02:51:04.740Z,29.17
2023-02-01T02:51:41.205Z,29.14
2023-02-01T02:52:17.463Z,29.20
2023-02-01T02:52:53.289Z,29.25
2023-02-01T02:53:30.035Z,29.39
2023-02-01T02:54:05.972Z,29.24
2023-02-01T02:54:41.793Z,29.17
2023-02-01T02:55:18.013Z,29.24
2023-02-01T02:55:54.187Z,29.23
2023-02-01T02:56:30.134Z,29.16
2023-02-01T02:57:06.094Z,29.20
2023-02-01T02:57:42.581Z,29.16
2023-02-01T02:58:18.844Z,29.18
2023-02-01T02:58:54.674Z,29.17
2023-02-01T02:59:30.700Z,29.20
2023-02-01T03:00:06.680Z,29.25
2023-02-01T03:00:42.320Z,29.27
2023-02-01T03:01:17.658Z,29.04
2023-02-01T03:01:54.344Z,29.28
2023-02-01T03:02:30.626Z,29.18
2023-02-01T03:03:06.797Z,29.23
2023-02-01T03:03:43.212Z,29.30
2023-02-01T03:04:19.235Z,29.21
2023-02-01T03:04:55.469Z,29.18
2023-02-01T03:05:31.165Z,29.16
2023-02-01T03:06:06.841Z,29.12
2023-02-01T03:06:43.393Z,29.23
2023-02-01T03:07:19.499Z,29.16
2023-02-01T03:07:55.389Z,29.22
2023-02-01T03:08:31.848Z,29.24
2023-02-01T03:09:08.338Z,29.27
2023-02-01T03:09:44.517Z,29.16
2023-02-01T03:10:20.818Z,29.10
2023-02-01T03:10:56.400Z,29.17
2023-02-01T03:11:32.183Z,29.20
2023-02-01T03:12:08.384Z,29.14
2023-02-01T03:12:45.266Z,29.25
2023-02-01T03:13:21.420Z,29.04
2023-02-01T03:13:57.403Z,29.27
2023-02-01T03:14:33.527Z,29.28
2023-02-01T03:15:09.921Z,29.29
2023-02-01T03:15:46.069Z,29.22
2023-02-01T03:16:21.611Z,29.24
2023-02-01T03:16:57.714Z,29.22
2023-02-01T03:17:34.149Z,29.12
2023-02-01T03:18:10.055Z,29.17
2023-02-01T03:18:46.557Z,29.14
2023-02-01T03:19:22.633Z,29.04
2023-02-01T03:19:58.829Z,29.30
2023-02-01T03:20:35.177Z,29.22
2023-02-01T03:21:11.999Z,29.19
2023-02-01T03:21:47.727Z,29.18
2023-02-01T03:22:23.961Z,29.15
2023-02-01T03:23:00.460Z,29.03
2023-02-01T03:23:37.059Z,29.26
2023-02-01T03:24:13.520Z,29.41
2023-02-01T03:24:49.850Z,29.16
2023-02-01T03:25:25.672Z,29.18
2023-02-01T03:26:02.269Z,29.23
2023-02-01T03:26:38.225Z,29.24
2023-02-01T03:27:14.141Z,29.13
2023-02-01T03:27:51.235Z,29.18
2023-02-01T03:28:27.291Z,28.99
2023-02-01T03:29:03.855Z,29.15
2023-02-01T03:29:40.192Z,29.19
2023-02-01T03:30:16.842Z,29.17
2023-02-01T03:30:53.705Z,29.27
2023-02-01T03:31:29.761Z,29.03
2023-02-01T03:32:05.744Z,29.13
2023-02-01T03:32:41.884Z,29.17
2023-02-01T03:33:18.117Z,29.23
2023-02-01T03:33:54.929Z,29.09
2023-02-01T03:34:31.084Z,29.11
2023-02-01T03:35:07.194Z,29.11
2023-02-01T03:35:44.050Z,29.23
2023-02-01T03:36:19.723Z,29.15
2023-02-01T03:36:56.254Z,29.08
2023-02-01T03:37:32.636Z,29.20
2023-02-01T03:38:08.380Z,29.11
2023-02-01T03:38:45.018Z,29.13
2023-02-01T03:39:21.264Z,29.14
2023-02-01T03:39:56.368Z,29.21
2023-02-01T03:40:32.083Z,29.24
2023-02-01T03:41:08.019Z,29.18
2023-02-01T03:41:44.697Z,29.11
2023-02-01T03:42:20.689Z,29.02
2023-02-01T03:42:57.395Z,29.13
2023-02-01T03:43:34.111Z,29.21
2023-02-01T03:44:09.932Z,29.24
2023-02-01T03:44:45.588Z,29.17
2023-02-01T03:45:21.096Z,29.02
2023-02-01T03:45:57.118Z,29.03
2023-02-01T03:46:33.175Z,29.16
2023-02-01T03:47:10.064Z,29.11
2023-02-01T03:47:46.609Z,29.14
2023-02-01T03:48:22.885Z,29.15
2023-02-01T03:48:59.172Z,29.14
2023-02-01T03:49:35.220Z,29.05
2023-02-01T03:50:11.221Z,28.94
2023-02-01T03:50:46.768Z,29.01
2023-02-01T03:51:23.631Z,29.06
2023-02-01T03:51:59.752Z,28.99
2023-02-01T03:52:36.599Z,29.02
2023-02-01T03:53:12.623Z,28.96
2023-02-01T03:53:49.529Z,28.94
2023-02-01T03:54:26.589Z,29.03
2023-02-01T03:55:02.802Z,29.20
2023-02-01T03:55:38.411Z,29.08
2023-02-01T03:56:14.836Z,29.12
2023-02-01T03:56:51.738Z,29.03
2023-02-01T03:57:28.143Z,29.35
2023-02-01T03:58:04.109Z,29.12
2023-02-01T03:58:41.140Z,29.14
2023-02-01T03:59:17.591Z,29.29
2023-02-01T03:59:53.968Z,29.13
2023-02-01T04:00:30.041Z,29.20
2023-02-01T04:01:06.038Z,29.12
2023-02-01T04:01:42.108Z,29.06
2023-02-01T04:02:18.598Z,29.02
2023-02-01T04:02:54.572Z,29.11
2023-02-01T04:03:30.657Z,29.15
2023-02-01T04:04:07.203Z,29.19
2023-02-01T04:04:43.689Z,29.13
2023-02-01T04:05:19.326Z,29.15
2023-02-01T04:05:55.679Z,29.15
2023-02-01T04:06:31.572Z,29.00
2023-02-01T04:07:07.524Z,29.20
2023-02-01T04:07:43.793Z,29.06
2023-02-01T04:08:20.125Z,29.06
2023-02-01T04:08:56.585Z,29.25
2023-02-01T04:09:32.346Z,29.12
2023-02-01T04:10:08.650Z,29.27
2023-02-01T04:10:45.090Z,29.11
2023-02-01T04:11:20.776Z,29.13
2023-02-01T04:11:56.368Z,29.24
2023-02-01T04:12:32.674Z,29.08
2023-02-01T04:13:08.957Z,29.07
2023-02-01T04:13:45.260Z,29.20
2023-02-01T04:14:21.124Z,29.04
2023-02-01T04:14:57.295Z,28.97
2023-02-01T04:15:33.786Z,29.11
2023-02-01T04:16:09.977Z,29.05
2023-02-01T04:16:46.298Z,29.14
2023-02-01T04:17:21.643Z,29.16
2023-02-01T04:17:58.017Z,29.04
2023-02-01T04:18:34.002Z,29.00
2023-02-01T04:19:10.781Z,29.07
2023-02-01T04:19:47.091Z,29.08
2023-02-01T04:20:23.380Z,29.04
2023-02-01T04:20:59.708Z,29.15
2023-02-01T04:21:35.639Z,29.02
2023-02-01T04:22:11.431Z,29.14
2023-02-01T04:22:47.378Z,29.18
2023-02-01T04:23:23.845Z,29.00
2023-02-01T04:24:00.429Z,29.12
2023-02-01T04:24:36.226Z,29.04
2023-02-01T04:25:12.986Z,29.02
2023-02-01T04:25:49.197Z,29.06
2023-02-01T04:26:25.236Z,29.09
2023-02-01T04:27:01.007Z,29.05
2023-02-01T04:27:37.343Z,29.12
2023-02-01T04:28:14.250Z,29.06
2023-02-01T04:28:50.571Z,28.99
2023-02-01T04:29:26.863Z,29.00
2023-02-01T04:30:05.718Z,29.20
2023-02-01T04:30:42.550Z,29.12
2023-02-01T04:31:18.993Z,29.10
2023-02-01T04:31:54.667Z,29.08
2023-02-01T04:32:30.404Z,29.03
2023-02-01T04:33:06.453Z,29.17
2023-02-01T04:33:42.659Z,29.04
2023-02-01T04:34:18.788Z,29.18
2023-02-01T04:34:55.180Z,29.10
2023-02-01T04:35:30.984Z,29.04
2023-02-01T04:36:07.788Z,29.13
2023-02-01T04:36:46.357Z,29.13
2023-02-01T04:37:22.288Z,29.06
2023-02-01T04:37:58.063Z,29.20
2023-02-01T04:38:34.199Z,29.03
2023-02-01T04:39:10.303Z,28.91
2023-02-01T04:39:46.810Z,29.00
2023-02-01T04:40:22.855Z,29.04
2023-02-01T04:40:59.295Z,29.01
2023-02-01T04:41:35.980Z,29.04
2023-02-01T04:42:12.397Z,29.04
2023-02-01T04:42:48.487Z,28.92
2023-02-01T04:43:23.845Z,29.13
2023-02-01T04:44:00.845Z,29.00
2023-02-01T04:44:37.039Z,29.14
2023-02-01T04:45:13.405Z,29.04
2023-02-01T04:45:49.982Z,29.06
2023-02-01T04:46:25.798Z,29.04
2023-02-01T04:47:02.660Z,29.08
2023-02-01T04:47:39.564Z,29.17
2023-02-01T04:48:15.355Z,29.11
2023-02-01T04:48:50.861Z,28.91
2023-02-01T04:49:26.872Z,29.12
2023-02-01T04:50:03.321Z,29.18
2023-02-01T04:50:39.406Z,29.39
2023-02-01T04:51:15.812Z,29.11
2023-02-01T04:51:51.255Z,29.02
2023-02-01T04:52:26.986Z,29.10
2023-02-01T04:53:03.790Z,29.02
2023-02-01T04:53:39.557Z,29.01
2023-02-01T04:54:15.665Z,29.05
2023-02-01T04:54:52.603Z,29.01
2023-02-01T04:55:28.840Z,28.88
2023-02-01T04:56:05.002Z,28.97
2023-02-01T04:56:40.855Z,28.95
2023-02-01T04:57:16.652Z,29.02
2023-02-01T04:57:53.080Z,28.95
2023-02-01T04:58:28.903Z,29.09
2023-02-01T04:59:05.555Z,29.11
2023-02-01T04:59:42.670Z,29.16
2023-02-01T05:00:18.974Z,28.96
2023-02-01T05:00:55.171Z,29.11
2023-02-01T05:01:31.152Z,29.19
2023-02-01T05:02:06.722Z,29.03
2023-02-01T05:02:43.593Z,29.00
2023-02-01T05:03:19.659Z,29.10
2023-02-01T05:03:56.081Z,29.21
2023-02-01T05:04:32.164Z,28.97
2023-02-01T05:05:08.142Z,29.14
2023-02-01T05:05:43.841Z,29.11
2023-02-01T05:06:20.736Z,29.13
2023-02-01T05:06:56.561Z,29.13
2023-02-01T05:07:32.267Z,29.12
2023-02-01T05:08:08.653Z,29.12
2023-02-01T05:08:45.047Z,29.08
2023-02-01T05:09:21.114Z,29.17
2023-02-01T05:09:56.872Z,28.94
2023-02-01T05:10:33.480Z,29.14
2023-02-01T05:11:09.428Z,29.09
2023-02-01T05:11:45.963Z,28.99
2023-02-01T05:12:22.011Z,29.12
2023-02-01T05:12:57.639Z,29.07
2023-02-01T05:13:33.705Z,29.24
2023-02-01T05:14:09.771Z,28.99
2023-02-01T05:14:45.754Z,29.14
2023-02-01T05:15:22.411Z,29.16
2023-02-01T05:15:58.695Z,29.04
2023-02-01T05:16:35.487Z,29.26
2023-02-01T05:17:11.361Z,29.15
2023-02-01T05:17:47.392Z,29.10
2023-02-01T05:18:23.816Z,29.17
2023-02-01T05:18:59.532Z,28.99
2023-02-01T05:19:35.889Z,28.90
2023-02-01T05:20:12.578Z,29.07
2023-02-01T05:20:48.717Z,29.14
2023-02-01T05:21:25.128Z,28.96
2023-02-01T05:22:00.700Z,29.01
2023-02-01T05:22:36.648Z,29.02
2023-02-01T05:23:13.321Z,29.09
2023-02-01T05:23:49.645Z,29.24
2023-02-01T05:24:25.967Z,29.06
2023-02-01T05:25:01.793Z,29.00
2023-02-01T05:25:37.859Z,29.07
2023-02-01T05:26:14.367Z,29.10
2023-02-01T05:26:50.913Z,29.22
2023-02-01T05:27:26.771Z,29.26
2023-02-01T05:28:03.095Z,29.10
2023-02-01T05:28:39.246Z,28.95
2023-02-01T05:29:15.368Z,29.12
2023-02-01T05:29:51.615Z,29.05
2023-02-01T05:30:28.991Z,28.99
2023-02-01T05:31:05.897Z,29.12
2023-02-01T05:31:41.813Z,29.01
2023-02-01T05:32:22.627Z,29.18
2023-02-01T05:32:58.282Z,28.97
2023-02-01T05:33:34.677Z,29.12
2023-02-01T05:34:10.567Z,29.02
2023-02-01T05:34:47.077Z,29.06
2023-02-01T05:35:23.847Z,28.86
2023-02-01T05:36:00.386Z,29.02
2023-02-01T05:36:36.369Z,29.03
2023-02-01T05:37:12.568Z,29.13
2023-02-01T05:37:48.042Z,29.19
2023-02-01T05:38:24.714Z,29.25
2023-02-01T05:39:00.534Z,29.12
2023-02-01T05:39:37.032Z,29.02
2023-02-01T05:40:12.964Z,29.24
2023-02-01T05:40:49.381Z,29.12
2023-02-01T05:41:26.538Z,29.12
2023-02-01T05:42:02.933Z,29.10
2023-02-01T05:42:38.643Z,29.12
2023-02-01T05:43:14.663Z,29.12
2023-02-01T05:43:50.888Z,29.19
2023-02-01T05:44:27.308Z,29.10
2023-02-01T05:45:05.953Z,29.11
2023-02-01T05:45:42.149Z,28.99
2023-02-01T05:46:18.380Z,29.10
2023-02-01T05:46:54.411Z,29.21
2023-02-01T05:47:30.740Z,29.10
2023-02-01T05:48:06.388Z,28.97
2023-02-01T05:48:41.675Z,29.03
2023-02-01T05:49:18.283Z,29.10
2023-02-01T05:49:54.918Z,29.12
2023-02-01T05:50:30.787Z,29.03
2023-02-01T05:51:07.518Z,29.10
2023-02-01T05:51:43.758Z,29.07
2023-02-01T05:52:20.485Z,29.18
2023-02-01T05:52:56.566Z,29.04
2023-02-01T05:53:32.792Z,28.86
2023-02-01T05:54:08.515Z,29.06
2023-02-01T05:54:44.728Z,29.00
2023-02-01T05:55:20.554Z,29.18
2023-02-01T05:55:56.110Z,28.92
2023-02-01T05:56:32.204Z,29.03
2023-02-01T05:57:09.158Z,29.10
2023-02-01T05:57:45.204Z,29.03
2023-02-01T05:58:21.823Z,28.97
2023-02-01T05:58:58.214Z,29.08
2023-02-01T05:59:33.830Z,29.06
2023-02-01T06:00:10.528Z,29.10
2023-02-01T06:00:46.798Z,29.19
2023-02-01T06:01:22.261Z,29.13
2023-02-01T06:01:58.368Z,29.15
2023-02-01T06:02:34.639Z,29.19
2023-02-01T06:03:11.056Z,29.13
2023-02-01T06:03:46.675Z,29.20
2023-02-01T06:04:23.065Z,29.17
2023-02-01T06:04:59.545Z,29.16
2023-02-01T06:05:35.628Z,29.20
2023-02-01T06:06:11.263Z,29.01
2023-02-01T06:06:47.690Z,29.20
2023-02-01T06:07:23.697Z,29.03
2023-02-01T06:08:00.474Z,29.10
2023-02-01T06:08:36.527Z,29.08
2023-02-01T06:09:13.227Z,29.10
2023-02-01T06:09:49.367Z,29.00
2023-02-01T06:10:26.039Z,29.13
2023-02-01T06:11:02.177Z,29.20
2023-02-01T06:11:37.633Z,29.15
2023-02-01T06:12:14.209Z,29.08
2023-02-01T06:12:50.204Z,29.00
2023-02-01T06:13:26.881Z,29.11
2023-02-01T06:14:03.331Z,29.02
2023-02-01T06:14:39.645Z,29.20
2023-02-01T06:15:15.880Z,29.12
2023-02-01T06:15:51.905Z,29.08
2023-02-01T06:16:27.835Z,28.96
2023-02-01T06:17:03.257Z,29.12
2023-02-01T06:17:39.665Z,29.02
2023-02-01T06:18:15.990Z,28.99
2023-02-01T06:18:52.084Z,29.12
2023-02-01T06:19:28.080Z,29.13
2023-02-01T06:20:04.381Z,29.16
2023-02-01T06:20:40.132Z,29.17
2023-02-01T06:21:16.571Z,29.14
2023-02-01T06:21:53.078Z,29.16
2023-02-01T06:22:28.884Z,29.15
2023-02-01T06:23:05.284Z,29.14
2023-02-01T06:23:41.914Z,29.12
2023-02-01T06:24:18.219Z,29.15
2023-02-01T06:24:54.586Z,29.09
2023-02-01T06:25:30.446Z,29.17
2023-02-01T06:26:06.871Z,29.15
2023-02-01T06:26:42.807Z,29.16
2023-02-01T06:27:18.321Z,28.99
2023-02-01T06:27:54.205Z,29.17
2023-02-01T06:28:30.240Z,29.07
2023-02-01T06:29:06.505Z,28.98
2023-02-01T06:29:42.594Z,29.18
2023-02-01T06:30:18.766Z,28.93
2023-02-01T06:30:54.589Z,28.93
2023-02-01T06:31:30.300Z,29.19
2023-02-01T06:32:06.968Z,29.21
2023-02-01T06:32:43.127Z,29.11
2023-02-01T06:33:19.410Z,29.17
2023-02-01T06:33:56.077Z,29.11
2023-02-01T06:34:32.854Z,29.11
2023-02-01T06:35:09.497Z,29.10
2023-02-01T06:35:45.270Z,29.16
2023-02-01T06:36:20.967Z,29.00
2023-02-01T06:36:57.486Z,29.16
2023-02-01T06:37:34.217Z,29.22
2023-02-01T06:38:10.216Z,29.16
2023-02-01T06:38:46.473Z,29.18
2023-02-01T06:39:21.915Z,29.16
2023-02-01T06:39:58.457Z,29.17
2023-02-01T06:40:34.633Z,29.03
2023-02-01T06:41:10.237Z,29.11
2023-02-01T06:41:46.588Z,28.85
2023-02-01T06:42:22.656Z,29.17
2023-02-01T06:42:58.999Z,29.13
2023-02-01T06:43:35.397Z,29.12
2023-02-01T06:44:11.284Z,29.11
2023-02-01T06:44:48.127Z,29.04
2023-02-01T06:45:24.224Z,29.22
2023-02-01T06:46:00.167Z,28.84
2023-02-01T06:46:35.983Z,29.18
2023-02-01T06:47:12.740Z,28.94
2023-02-01T06:47:49.777Z,28.89
2023-02-01T06:48:25.768Z,29.18
2023-02-01T06:49:02.235Z,29.06
2023-02-01T06:49:38.702Z,29.04
2023-02-01T06:50:15.177Z,28.99
2023-02-01T06:50:51.550Z,29.11
2023-02-01T06:51:27.894Z,29.41
2023-02-01T06:52:03.499Z,29.03
2023-02-01T06:52:39.988Z,29.19
2023-02-01T06:53:16.213Z,29.01
2023-02-01T06:53:52.903Z,29.14
2023-02-01T06:54:29.397Z,29.07
2023-02-01T06:55:06.242Z,29.03
2023-02-01T06:55:41.982Z,28.97
2023-02-01T06:56:17.849Z,29.02
2023-02-01T06:56:54.140Z,29.15
2023-02-01T06:57:29.780Z,29.10
2023-02-01T06:58:05.898Z,29.07
2023-02-01T06:58:41.901Z,29.15
2023-02-01T06:59:18.382Z,29.18
2023-02-01T06:59:54.900Z,29.19
2023-02-01T07:00:32.735Z,29.09
2023-02-01T07:01:09.108Z,29.07
2023-02-01T07:01:44.958Z,29.12
2023-02-01T07:02:21.496Z,29.12
2023-02-01T07:02:57.950Z,29.15
2023-02-01T07:03:33.534Z,29.08
2023-02-01T07:04:09.700Z,29.16
2023-02-01T07:04:46.133Z,28.98
2023-02-01T07:05:22.362Z,29.18
2023-02-01T07:05:59.136Z,29.19
2023-02-01T07:06:35.607Z,29.07
2023-02-01T07:07:12.288Z,29.02
2023-02-01T07:07:48.119Z,29.06
2023-02-01T07:08:23.789Z,29.03
2023-02-01T07:09:00.112Z,29.01
2023-02-01T07:09:36.353Z,29.02
2023-02-01T07:10:12.447Z,29.22
2023-02-01T07:10:49.516Z,29.15
2023-02-01T07:11:25.887Z,29.07
2023-02-01T07:12:02.334Z,29.24
2023-02-01T07:12:38.881Z,29.17
2023-02-01T07:13:15.422Z,29.19
2023-02-01T07:13:51.226Z,29.16
2023-02-01T07:14:27.641Z,29.22
2023-02-01T07:15:07.362Z,29.10
2023-02-01T07:15:43.452Z,29.11
2023-02-01T07:16:19.494Z,29.21
2023-02-01T07:16:55.535Z,29.11
2023-02-01T07:17:32.310Z,28.98
2023-02-01T07:18:08.590Z,29.06
2023-02-01T07:18:45.102Z,29.16
2023-02-01T07:19:20.846Z,29.10
2023-02-01T07:19:57.799Z,29.17
2023-02-01T07:20:34.132Z,29.12
2023-02-01T07:21:10.498Z,29.18
2023-02-01T07:21:46.729Z,29.16
2023-02-01T07:22:23.224Z,29.20
2023-02-01T07:22:59.373Z,29.07
2023-02-01T07:23:35.585Z,29.17
2023-02-01T07:24:11.620Z,29.20
2023-02-01T07:24:46.923Z,29.15
2023-02-01T07:25:23.816Z,29.06
2023-02-01T07:26:00.214Z,29.03
2023-02-01T07:26:36.105Z,29.04
2023-02-01T07:27:12.572Z,29.04
2023-02-01T07:27:48.777Z,29.13
2023-02-01T07:28:24.743Z,29.10
2023-02-01T07:29:01.277Z,29.16
2023-02-01T07:29:37.288Z,29.16
2023-02-01T07:30:13.015Z,29.11
2023-02-01T07:30:49.492Z,29.12
2023-02-01T07:31:25.739Z,29.08
2023-02-01T07:32:02.072Z,29.23
2023-02-01T07:32:38.649Z,29.15
2023-02-01T07:33:14.454Z,29.19
2023-02-01T07:33:50.047Z,29.19
2023-02-01T07:34:26.733Z,29.15
2023-02-01T07:35:04.132Z,29.05
2023-02-01T07:35:40.662Z,29.07
2023-02-01T07:36:17.610Z,29.17
2023-02-01T07:36:53.378Z,29.14
2023-02-01T07:37:29.887Z,29.15
2023-02-01T07:38:06.268Z,29.15
2023-02-01T07:38:42.340Z,29.18
2023-02-01T07:39:18.114Z,29.07
2023-02-01T07:39:54.747Z,29.11
2023-02-01T07:40:31.363Z,29.07
2023-02-01T07:41:07.751Z,29.08
2023-02-01T07:41:43.659Z,29.11
2023-02-01T07:42:20.774Z,28.99
2023-02-01T07:42:57.345Z,29.03
2023-02-01T07:43:33.372Z,29.16
2023-02-01T07:44:08.862Z,29.14
2023-02-01T07:44:45.629Z,29.11
2023-02-01T07:45:21.911Z,29.01
2023-02-01T07:45:58.424Z,29.06
2023-02-01T07:46:34.882Z,29.02
2023-02-01T07:47:11.175Z,29.19
2023-02-01T07:47:47.735Z,29.19